Time;durP1;ratioP1;P1;durP2;ratioP2;P2;SDS_P1;SDS_P2;PMS_P1;PMS_P2;Temp;Humidity;BMP_temperature;BMP_pressure;BME280_temperature;BME280_humidity;BME280_pressure;Samples;Min_cycle;Max_cycle;Signal;HPM_P1;HPM_P2
2022/07/30 00:00:07;;;;;;;22.10;19.95;;;23.10;84.80;;;;;;5072165;28;20063;-54
2022/07/30 00:02:32;;;;;;;24.17;20.60;;;23.20;84.70;;;;;;5072163;28;20474;-52
2022/07/30 00:04:58;;;;;;;23.67;20.67;;;23.10;84.90;;;;;;5072331;28;20060;-54
2022/07/30 00:07:24;;;;;;;22.10;19.33;;;23.00;85.20;;;;;;5072170;28;20398;-53
2022/07/30 00:09:50;;;;;;;24.27;21.27;;;23.00;85.50;;;;;;5071675;28;20029;-54
2022/07/30 00:12:16;;;;;;;24.10;21.47;;;;;;;;;;5072472;28;20445;-52
2022/07/30 00:14:42;;;;;;;23.73;21.05;;;;;;;;;;5071924;28;20029;-54
2022/07/30 00:17:08;;;;;;;23.50;20.47;;;;;;;;;;5070642;28;20505;-55
2022/07/30 00:19:34;;;;;;;25.70;22.03;;;;;;;;;;5071703;28;20606;-55
2022/07/30 00:22:00;;;;;;;27.40;23.20;;;;;;;;;;5070775;28;20132;-53
2022/07/30 00:24:26;;;;;;;28.73;22.55;;;;;;;;;;5071868;28;20024;-53
2022/07/30 00:26:52;;;;;;;22.57;20.13;;;;;;;;;;5071947;28;20021;-54
2022/07/30 00:29:18;;;;;;;26.80;22.67;;;;;;;;;;5071517;28;20103;-55
2022/07/30 00:31:44;;;;;;;25.80;22.27;;;;;;;;;;5071721;28;20040;-52
2022/07/30 00:34:14;;;;;;;27.97;22.73;;;;;;;;;;5071603;28;20490;-53
2022/07/30 00:36:40;;;;;;;24.67;21.98;;;;;;;;;;5071505;28;20036;-51
2022/07/30 00:39:06;;;;;;;27.50;22.48;;;;;;;;;;5071530;28;20024;-51
2022/07/30 00:41:32;;;;;;;28.60;22.33;;;;;;;;;;5071242;28;20094;-53
2022/07/30 00:43:59;;;;;;;26.52;23.70;;;;;;;;;;5071353;28;20620;-54
2022/07/30 00:46:25;;;;;;;27.70;23.88;;;;;;;;;;5070142;28;20524;-52
2022/07/30 00:48:51;;;;;;;26.43;22.97;;;;;;;;;;5071202;28;20524;-54
2022/07/30 00:51:17;;;;;;;28.70;23.10;;;;;;;;;;5071594;28;20544;-53
2022/07/30 00:53:43;;;;;;;25.50;22.83;;;;;;;;;;5070160;28;20525;-52
2022/07/30 00:56:09;;;;;;;26.00;23.40;;;;;;;;;;5070040;28;20036;-54
2022/07/30 00:58:35;;;;;;;30.10;24.63;;;;;;;;;;5071022;28;20020;-55
2022/07/30 01:01:01;;;;;;;27.57;23.60;;;;;;;;;;5071587;28;20274;-54
2022/07/30 01:03:27;;;;;;;31.02;25.27;;;;;;;;;;5071493;28;20262;-55
2022/07/30 01:05:53;;;;;;;32.20;25.17;;;;;;;;;;5071096;28;20032;-54
2022/07/30 01:08:19;;;;;;;31.07;25.07;;;;;;;;;;5069721;28;20267;-54
2022/07/30 01:10:45;;;;;;;29.17;25.23;;;;;;;;;;5071372;28;20056;-53
2022/07/30 01:13:12;;;;;;;33.17;26.20;;;;;;;;;;5071045;28;20426;-52
2022/07/30 01:15:39;;;;;;;31.93;26.87;;;;;;;;;;5071501;28;20025;-52
2022/07/30 01:18:07;;;;;;;29.40;26.30;;;;;;;;;;5070882;28;20028;-53
2022/07/30 01:20:36;;;;;;;35.70;25.08;;;;;;;;;;5070870;28;20029;-51
2022/07/30 01:23:17;;;;;;;30.95;25.33;;;;;;;;;;5070949;28;20024;-50
2022/07/30 01:25:43;;;;;;;30.00;24.95;;;;;;;;;;5070632;28;20029;-54
2022/07/30 01:28:11;;;;;;;30.05;24.73;;;;;;;;;;5071293;28;20032;-55
2022/07/30 01:30:39;;;;;;;31.83;25.42;;;;;;;;;;5069576;28;20029;-50
2022/07/30 01:33:05;;;;;;;31.08;24.10;;;;;;;;;;5069698;28;20279;-51
2022/07/30 01:35:32;;;;;;;32.17;24.67;;;;;;;;;;5071381;28;20120;-52
2022/07/30 01:37:59;;;;;;;30.38;25.08;;;;;;;;;;5070860;28;20501;-51
2022/07/30 01:40:25;;;;;;;;;;;;;;;;;;5070981;28;20105;-51
2022/07/30 01:42:53;;;;;;;31.35;25.13;;;;;;;;;;5071107;28;20556;-52
2022/07/30 01:45:21;;;;;;;30.10;24.13;;;;;;;;;;5070921;28;20039;-53
2022/07/30 01:47:48;;;;;;;27.77;23.55;;;;;;;;;;5070680;28;20406;-50
2022/07/30 01:50:15;;;;;;;29.30;24.02;;;;;;;;;;5069394;28;20386;-50
2022/07/30 01:52:43;;;;;;;29.13;23.30;;;;;;;;;;5071207;28;20112;-52
2022/07/30 01:55:14;;;;;;;32.08;23.70;;;;;;;;;;5074734;28;20040;-51
2022/07/30 01:57:40;;;;;;;32.40;22.83;;;;;;;;;;5074750;28;20037;-52
2022/07/30 02:00:07;;;;;;;28.45;21.70;;;;;;;;;;5074324;28;20055;-53
2022/07/30 02:02:39;;;;;;;28.80;22.67;;;;;;;;;;5074311;28;20107;-54
2022/07/30 02:05:05;;;;;;;27.52;22.42;;;;;;;;;;5074491;28;20048;-54
2022/07/30 02:07:38;;;;;;;31.58;22.88;;;;;;;;;;5074275;28;20034;-51
2022/07/30 02:10:04;;;;;;;28.10;22.48;;;;;;;;;;5073982;28;20028;-50
2022/07/30 02:12:30;;;;;;;33.95;23.45;;;;;;;;;;5074296;28;20075;-53
2022/07/30 02:14:56;;;;;;;;;;;;;;;;;;5074885;28;20059;-52
2022/07/30 02:17:28;;;;;;;29.95;22.38;;;;;;;;;;5074496;28;19905;-54
2022/07/30 02:19:58;;;;;;;30.48;23.75;;;;;;;;;;5072785;28;20025;-52
2022/07/30 02:22:25;;;;;;;29.33;23.38;;;;;;;;;;5073125;28;20036;-51
2022/07/30 02:24:52;;;;;;;30.13;23.63;;;;;;;;;;5074082;28;20048;-51
2022/07/30 02:27:22;;;;;;;28.23;23.08;;;;;;;;;;5073927;28;20052;-54
2022/07/30 02:29:48;;;;;;;27.60;21.73;;;;;;;;;;5073886;28;20510;-51
2022/07/30 02:32:15;;;;;;;27.50;23.02;;;;;;;;;;5074316;28;20028;-51
2022/07/30 02:34:42;;;;;;;29.10;22.65;;;;;;;;;;5073823;28;20520;-50
2022/07/30 02:37:11;;;;;;;29.75;22.42;;;;;;;;;;5073639;28;20123;-51
2022/07/30 02:39:38;;;;;;;26.13;22.20;;;;;;;;;;5073533;28;20025;-52
2022/07/30 02:42:04;;;;;;;26.30;22.58;;;;;;;;;;5073749;28;20033;-54
2022/07/30 02:44:30;;;;;;;31.60;24.13;;;;;;;;;;5073988;28;20086;-54
2022/07/30 02:46:57;;;;;;;30.80;24.60;;;;;;;;;;5073792;28;20028;-51
2022/07/30 02:49:23;;;;;;;34.45;25.58;;;;;;;;;;5073029;28;20035;-53
2022/07/30 02:51:50;;;;;;;27.10;22.83;;;;;;;;;;5073166;28;20041;-51
2022/07/30 02:54:17;;;;;;;31.80;24.55;;;;;;;;;;5073699;28;20036;-50
2022/07/30 02:56:44;;;;;;;31.70;24.73;;;;;;;;;;5073272;28;20094;-50
2022/07/30 02:59:11;;;;;;;30.35;24.00;;;;;;;;;;5072043;28;20490;-55
2022/07/30 03:01:37;;;;;;;30.98;24.88;;;;;;;;;;5066054;28;20106;-52
2022/07/30 03:04:04;;;;;;;34.05;25.73;;;;;;;;;;5073380;28;20021;-53
2022/07/30 03:06:31;;;;;;;38.45;26.65;;;;;;;;;;5073425;28;20074;-52
2022/07/30 03:08:57;;;;;;;35.50;27.52;;;;;;;;;;5072404;28;20556;-56
2022/07/30 03:11:24;;;;;;;34.22;26.55;;;;;;;;;;5071872;28;20082;-51
2022/07/30 03:13:50;;;;;;;;;;;;;;;;;;5072471;28;20029;-53
2022/07/30 03:16:17;;;;;;;36.08;27.58;;;;;;;;;;5071542;28;19905;-55
2022/07/30 03:18:43;;;;;;;44.38;29.50;;;;;;;;;;5062189;28;20032;-51
2022/07/30 03:21:11;;;;;;;40.28;30.48;;;;;;;;;;5073432;28;20506;-54
2022/07/30 03:23:39;;;;;;;33.13;28.02;;;;;;;;;;5061241;28;20033;-51
2022/07/30 03:26:07;;;;;;;39.03;30.40;;;;;;;;;;5052085;28;20028;-50
2022/07/30 03:28:35;;;;;;;43.33;31.60;;;;;;;;;;5052973;28;20510;-51
2022/07/30 03:31:02;;;;;;;43.88;32.22;;;;;;;;;;5064126;28;20063;-52
2022/07/30 03:33:28;;;;;;;47.75;33.50;;;;;;;;;;5072981;28;20033;-51
2022/07/30 03:35:55;;;;;;;49.03;35.08;;;;;;;;;;5072812;28;20027;-50
2022/07/30 03:38:21;;;;;;;52.45;35.28;;;;;;;;;;5072392;28;20394;-51
2022/07/30 03:40:48;;;;;;;51.08;36.70;;;;;;;;;;5072985;28;20426;-52
2022/07/30 03:43:14;;;;;;;45.20;34.97;;;;;;;;;;5072154;28;20025;-54
2022/07/30 03:45:41;;;;;;;47.40;35.42;;;;;;;;;;5072865;28;20502;-51
2022/07/30 03:48:09;;;;;;;50.40;34.90;;;;;;;;;;5072297;28;20027;-52
2022/07/30 03:50:35;;;;;;;49.72;36.55;;;;;;;;;;5072289;28;20032;-51
2022/07/30 03:53:02;;;;;;;56.50;37.83;;;;;;;;;;5072247;28;20028;-51
2022/07/30 03:55:28;;;;;;;51.63;36.90;;;;;;;;;;5072535;28;20032;-51
2022/07/30 03:57:55;;;;;;;49.03;36.97;;;;;;;;;;5072187;28;20055;-51
2022/07/30 04:00:21;;;;;;;55.17;39.15;;;;;;;;;;5069788;28;20024;-51
2022/07/30 04:02:47;;;;;;;52.53;38.97;;;;;;;;;;5062286;28;20053;-50
2022/07/30 04:05:14;;;;;;;50.37;39.07;;;;;;;;;;5052677;28;20021;-54
2022/07/30 04:07:40;;;;;;;58.25;40.00;;;;;;;;;;5051033;28;20082;-52
2022/07/30 04:10:06;;;;;;;50.63;38.73;;;;;;;;;;5052468;28;20622;-50
2022/07/30 04:12:32;;;;;;;54.78;38.97;;;;;;;;;;5052348;28;20446;-53
2022/07/30 04:14:58;;;;;;;57.50;42.03;;;;;;;;;;5052490;28;20434;-54
2022/07/30 04:17:24;;;;;;;60.87;40.47;;;;;;;;;;5051498;28;20368;-53
2022/07/30 04:19:52;;;;;;;54.57;39.57;;;;;;;;;;5050945;28;20032;-52
2022/07/30 04:22:21;;;;;;;57.65;41.42;;;;;;;;;;5052222;28;20417;-51
2022/07/30 04:24:48;;;;;;;55.25;41.42;;;;;;;;;;5052143;28;20025;-51
2022/07/30 04:27:15;;;;;;;55.28;41.03;;;;;;;;;;5051943;28;20094;-51
2022/07/30 04:29:41;;;;;;;;;;;;;;;;;;5052485;28;20021;-55
2022/07/30 04:32:08;;;;;;;56.10;40.58;;;;;;;;;;5052167;28;19911;-51
2022/07/30 04:34:34;;;;;;;53.65;38.17;;;;;;;;;;5050847;28;20040;-50
2022/07/30 04:37:00;;;;;;;53.42;41.33;;;;;;;;;;5051909;28;20029;-50
2022/07/30 04:39:26;;;;;;;62.00;42.70;;;;;;;;;;5051839;28;20028;-51
2022/07/30 04:41:53;;;;;;;52.17;39.57;;;;;;;;;;5051859;28;20391;-52
2022/07/30 04:44:19;;;;;;;61.60;43.13;;;;;;;;;;5052002;28;20021;-50
2022/07/30 04:46:46;;;;;;;59.83;41.83;;;;;;;;;;5051580;28;20023;-55
2022/07/30 04:49:12;;;;;;;52.95;40.28;;;;;;;;;;5052299;28;20033;-53
2022/07/30 04:51:39;;;;;;;53.42;41.50;;;;;;;;;;5052264;28;20039;-55
2022/07/30 04:54:06;;;;;;;60.78;40.15;;;;;;;;;;5051573;28;20025;-54
2022/07/30 04:56:33;;;;;;;59.13;40.20;;;22.90;86.00;;;;;;5050241;28;20025;-50
2022/07/30 04:59:00;;;;;;;55.03;40.10;;;22.10;87.80;;;;;;5051643;28;20029;-53
2022/07/30 05:01:38;;;;;;;54.50;41.08;;;22.00;87.50;;;;;;5051725;28;20029;-51
2022/07/30 05:04:06;;;;;;;57.40;39.25;;;;;;;;;;5050614;28;20025;-51
2022/07/30 05:06:33;;;;;;;61.38;42.05;;;;;;;;;;5050078;28;20021;-53
2022/07/30 05:08:59;;;;;;;54.80;39.80;;;;;;;;;;5051489;28;20048;-50
2022/07/30 05:11:25;;;;;;;55.70;40.58;;;;;;;;;;5051617;28;20476;-50
2022/07/30 05:13:51;;;;;;;59.87;41.13;;;;;;;;;;5051622;28;20731;-51
2022/07/30 05:16:17;;;;;;;59.85;40.08;;;;;;;;;;5051369;28;20025;-52
2022/07/30 05:18:44;;;;;;;55.17;41.37;;;;;;;;;;5051370;28;20051;-50
2022/07/30 05:21:10;;;;;;;62.38;43.13;;;;;;;;;;5051250;28;20021;-53
2022/07/30 05:23:36;;;;;;;66.57;41.83;;;;;;;;;;5051431;28;20021;-54
2022/07/30 05:26:02;;;;;;;63.20;42.77;;;;;;;;;;5051343;28;20017;-55
2022/07/30 05:28:28;;;;;;;64.53;42.27;;;;;;;;;;5053587;28;20632;-53
2022/07/30 05:30:54;;;;;;;56.60;41.57;;;;;;;;;;5055520;28;20025;-52
2022/07/30 05:33:21;;;;;;;61.50;43.03;;;;;;;;;;5055532;28;20033;-54
2022/07/30 05:35:48;;;;;;;58.70;42.17;;;;;;;;;;5055485;28;20685;-52
2022/07/30 05:38:14;;;;;;;57.40;38.53;;;;;;;;;;5054230;28;20033;-51
2022/07/30 05:40:40;;;;;;;60.38;40.53;;;;;;;;;;5055223;28;20110;-53
2022/07/30 05:43:06;;;;;;;52.60;38.73;;;;;;;;;;5055323;28;20025;-53
2022/07/30 05:45:32;;;;;;;54.43;38.90;;;;;;;;;;5055186;28;20021;-54
2022/07/30 05:47:58;;;;;;;56.63;39.97;;;;;;;;;;5054815;28;20305;-53
2022/07/30 05:50:24;;;;;;;61.08;42.35;;;22.00;87.40;;;;;;5055105;28;20033;-52
2022/07/30 05:52:50;;;;;;;60.27;40.20;;;22.50;87.50;;;;;;5055174;28;20025;-50
2022/07/30 05:55:15;;;;;;;58.73;40.73;;;22.50;87.50;;;;;;5055107;28;20056;-53
2022/07/30 05:57:42;;;;;;;56.67;37.97;;;;;;;;;;5054872;28;20024;-52
2022/07/30 06:00:09;;;;;;;56.55;38.78;;;;;;;;;;5053621;28;20403;-53
2022/07/30 06:02:35;;;;;;;52.95;39.00;;;;;;;;;;5054953;28;20017;-54
2022/07/30 06:05:01;;;;;;;52.67;37.70;;;;;;;;;;5054852;28;20021;-53
2022/07/30 06:07:27;;;;;;;49.90;37.43;;;;;;;;;;5054886;28;20484;-50
2022/07/30 06:09:58;;;;;;;48.80;34.83;;;;;;;;;;5053527;28;20248;-51
2022/07/30 06:12:24;;;;;;;46.60;35.25;;;;;;;;;;5054744;28;20017;-51
2022/07/30 06:14:50;;;;;;;46.70;34.27;;;;;;;;;;5054728;28;20078;-52
2022/07/30 06:17:16;;;;;;;39.90;31.10;;;;;;;;;;5054995;28;20545;-51
2022/07/30 06:19:42;;;;;;;43.73;31.33;;;;;;;;;;5054499;28;20027;-54
2022/07/30 06:22:08;;;;;;;37.90;30.77;;;;;;;;;;5054590;28;20025;-54
2022/07/30 06:24:35;;;;;;;38.93;31.37;;;;;;;;;;5054551;28;20104;-52
2022/07/30 06:27:01;;;;;;;42.45;31.42;;;;;;;;;;5054471;28;20246;-51
2022/07/30 06:29:27;;;;;;;41.27;33.53;;;;;;;;;;5054443;28;20021;-51
2022/07/30 06:31:53;;;;;;;41.20;33.83;;;;;;;;;;5054370;28;20289;-53
2022/07/30 06:34:19;;;;;;;46.37;36.10;;;;;;;;;;5054671;28;20458;-51
2022/07/30 06:36:44;;;;;;;46.57;38.40;;;22.40;87.60;;;;;;5052897;28;20541;-51
2022/07/30 06:39:10;;;;;;;39.67;35.40;;;23.00;87.60;;;;;;5053126;28;20033;-52
2022/07/30 06:41:36;;;;;;;39.08;32.97;;;23.00;86.70;;;;;;5054279;28;20059;-52
2022/07/30 06:44:01;;;;;;;38.33;31.03;;;23.00;86.00;;;;;;5052953;28;20017;-52
2022/07/30 06:46:27;;;;;;;39.43;30.93;;;22.90;87.00;;;;;;5053841;28;20025;-54
2022/07/30 06:48:53;;;;;;;38.37;29.13;;;22.90;85.50;;;;;;5053893;28;20062;-56
2022/07/30 06:51:18;;;;;;;38.37;31.03;;;22.90;85.80;;;;;;5054076;28;20104;-53
2022/07/30 06:53:45;;;;;;;37.77;32.13;;;;;;;;;;5054064;28;20108;-53
2022/07/30 06:56:11;;;;;;;34.80;30.35;;;;;;;;;;5053824;28;20540;-52
2022/07/30 06:58:38;;;;;;;37.55;31.92;;;;;;;;;;5054092;28;20381;-54
2022/07/30 07:01:04;;;;;;;40.80;32.78;;;;;;;;;;5053692;28;20074;-56
2022/07/30 07:03:30;;;;;;;37.38;31.67;;;;;;;;;;5053656;28;20052;-57
2022/07/30 07:05:56;;;;;;;33.67;29.83;;;;;;;;;;5053976;28;20491;-56
2022/07/30 07:08:22;;;;;;;35.72;30.13;;;;;;;;;;5053793;28;20263;-57
2022/07/30 07:10:48;;;;;;;34.58;30.08;;;;;;;;;;5053691;28;20161;-55
2022/07/30 07:13:15;;;;;;;39.67;32.07;;;;;;;;;;5053654;28;20021;-57
2022/07/30 07:15:41;;;;;;;36.73;32.17;;;;;;;;;;5053940;28;20629;-52
2022/07/30 07:18:07;;;;;;;35.87;29.10;;;;;;;;;;5053247;28;20028;-54
2022/07/30 07:20:33;;;;;;;34.90;29.60;;;;;;;;;;5053459;28;20358;-55
2022/07/30 07:23:00;;;;;;;32.80;27.98;;;;;;;;;;5053526;28;20021;-54
2022/07/30 07:25:26;;;;;;;34.92;29.48;;;;;;;;;;5053438;28;20487;-56
2022/07/30 07:27:52;;;;;;;35.97;28.05;;;;;;;;;;5053192;28;20025;-55
2022/07/30 07:30:18;;;;;;;41.35;29.83;;;;;;;;;;5053101;28;20486;-54
2022/07/30 07:32:44;;;;;;;32.95;27.98;;;;;;;;;;5053293;28;20025;-53
2022/07/30 07:35:12;;;;;;;30.97;26.63;;;;;;;;;;5053278;28;20502;-53
2022/07/30 07:37:38;;;;;;;33.90;26.08;;;;;;;;;;5053182;28;20116;-56
2022/07/30 07:40:05;;;;;;;32.47;24.80;;;;;;;;;;5053115;28;20060;-56
2022/07/30 07:42:31;;;;;;;28.50;23.67;;;;;;;;;;5053039;28;20049;-53
2022/07/30 07:44:57;;;;;;;38.53;27.57;;;;;;;;;;5052856;28;20025;-55
2022/07/30 07:47:23;;;;;;;33.67;25.85;;;;;;;;;;5052901;28;20352;-52
2022/07/30 07:49:49;;;;;;;26.23;22.17;;;;;;;;;;5052760;28;20457;-56
2022/07/30 07:52:15;;;;;;;25.77;21.33;;;;;;;;;;5052698;28;20025;-56
2022/07/30 07:54:41;;;;;;;25.20;21.43;;;;;;;;;;5052882;28;20068;-55
2022/07/30 07:57:07;;;;;;;24.43;19.07;;;;;;;;;;5052666;28;20263;-51
2022/07/30 07:59:34;;;;;;;24.10;20.13;;;;;;;;;;5053033;28;20040;-53
2022/07/30 08:02:00;;;;;;;26.83;22.73;;;;;;;;;;5052586;28;20069;-53
2022/07/30 08:04:26;;;;;;;25.27;20.73;;;;;;;;;;5052713;28;20025;-52
2022/07/30 08:06:52;;;;;;;24.70;19.13;;;;;;;;;;5052365;28;20529;-52
2022/07/30 08:09:18;;;;;;;20.63;17.43;;;;;;;;;;5052534;28;20251;-54
2022/07/30 08:11:44;;;;;;;20.30;16.47;;;;;;;;;;5052500;28;20346;-55
2022/07/30 08:14:10;;;;;;;22.13;14.93;;;;;;;;;;5052411;28;20060;-55
2022/07/30 08:16:37;;;;;;;18.58;15.02;;;;;;;;;;5052283;28;20263;-55
2022/07/30 08:19:03;;;;;;;19.25;17.00;;;;;;;;;;5052371;28;20040;-56
2022/07/30 08:21:29;;;;;;;20.67;17.10;;;;;;;;;;5051024;28;20017;-55
2022/07/30 08:23:55;;;;;;;17.30;15.40;;;;;;;;;;5052328;28;20029;-55
2022/07/30 08:26:21;;;;;;;20.87;16.37;;;;;;;;;;5052127;28;20335;-54
2022/07/30 08:28:47;;;;;;;15.15;13.55;;;;;;;;;;5052067;28;20078;-55
2022/07/30 08:31:13;;;;;;;19.37;12.10;;;;;;;;;;5052050;28;20021;-55
2022/07/30 08:33:39;;;;;;;14.63;13.05;;;;;;;;;;5052177;28;20456;-55
2022/07/30 08:36:06;;;;;;;16.17;11.07;;;;;;;;;;5052061;28;20033;-54
2022/07/30 08:38:32;;;;;;;13.93;11.85;;;;;;;;;;5051961;28;20095;-55
2022/07/30 08:40:58;;;;;;;13.45;12.05;;;;;;;;;;5051832;28;20028;-55
2022/07/30 08:43:27;;;;;;;10.15;9.15;;;;;;;;;;5051871;28;20025;-53
2022/07/30 08:45:56;;;;;;;10.88;9.02;;;;;;;;;;5051831;28;20476;-57
2022/07/30 08:48:23;;;;;;;11.15;9.75;;;;;;;;;;5051540;28;20036;-54
2022/07/30 08:50:50;;;;;;;13.93;10.70;;;;;;;;;;5052177;28;20475;-52
2022/07/30 08:53:16;;;;;;;16.85;11.05;;;;;;;;;;5051753;28;20025;-51
2022/07/30 08:55:43;;;;;;;10.70;9.55;;;;;;;;;;5051469;28;20055;-51
2022/07/30 08:58:22;;;;;;;11.88;10.07;;;;;;;;;;5051474;28;20025;-55
2022/07/30 09:00:49;;;;;;;14.82;9.32;;;;;;;;;;5051824;28;20086;-55
2022/07/30 09:03:15;;;;;;;;;;;;;;;;;;5051575;28;20031;-55
2022/07/30 09:05:41;;;;;;;9.35;8.45;;;;;;;;;;5051599;28;19995;-55
2022/07/30 09:08:07;;;;;;;13.48;9.70;;;;;;;;;;5051250;28;20071;-51
2022/07/30 09:10:33;;;;;;;11.77;9.20;;;;;;;;;;5050224;28;20032;-54
2022/07/30 09:12:59;;;;;;;8.07;7.28;;;;;;;;;;5051596;28;20029;-55
2022/07/30 09:15:27;;;;;;;9.30;8.38;;;;;;;;;;5051543;28;20028;-56
2022/07/30 09:17:53;;;;;;;8.32;7.45;;;;;;;;;;5051411;28;20029;-54
2022/07/30 09:20:20;;;;;;;9.67;8.67;;;;;;;;;;5051875;28;20028;-53
2022/07/30 09:22:48;;;;;;;9.32;8.35;;;;;;;;;;5051341;28;20256;-54
2022/07/30 09:25:14;;;;;;;9.75;8.70;;;;;;;;;;5051392;28;20025;-54
2022/07/30 09:27:47;;;;;;;9.93;8.93;;;;;;;;;;5051224;28;20025;-57
2022/07/30 09:30:13;;;;;;;8.27;6.57;;;;;;;;;;5051966;28;20091;-56
2022/07/30 09:32:58;;;;;;;7.85;7.05;;;;;;;;;;5051556;28;20043;-52
2022/07/30 09:35:24;;;;;;;11.00;7.88;;;;;;;;;;5051406;28;20332;-53
2022/07/30 09:38:00;;;;;;;8.77;7.90;;;;;;;;;;5051357;28;20021;-54
2022/07/30 09:40:26;;;;;;;13.00;9.20;;;;;;;;;;5051577;28;20029;-56
2022/07/30 09:43:11;;;;;;;7.47;6.65;;;;;;;;;;5051668;28;20025;-56
2022/07/30 09:45:49;;;;;;;14.63;9.23;;;;;;;;;;5051434;28;20104;-55
2022/07/30 09:48:22;;;;;;;11.00;8.23;;;;;;;;;;5051080;28;20029;-57
2022/07/30 09:50:49;;;;;;;9.73;7.35;;;;;;;;;;5051340;28;20033;-54
2022/07/30 09:53:14;;;;;;;;;;;;;;;;;;5051843;28;20029;-55
2022/07/30 09:55:41;;;;;;;6.65;6.05;;;;;;;;;;5051464;28;19915;-56
2022/07/30 09:58:07;;;;;;;7.45;6.32;;;;;;;;;;5051057;28;20033;-54
2022/07/30 10:00:34;;;;;;;6.57;5.90;;;;;;;;;;5051251;28;20029;-54
2022/07/30 10:03:01;;;;;;;8.68;6.90;;;;;;;;;;5051137;28;20037;-57
2022/07/30 10:05:28;;;;;;;8.98;8.07;;;;;;;;;;5051041;28;20071;-55
2022/07/30 10:07:56;;;;;;;7.55;6.82;;;;;;;;;;5051000;28;20032;-54
2022/07/30 10:10:24;;;;;;;7.90;7.15;;;;;;;;;;5051205;28;20044;-54
2022/07/30 10:12:51;;;;;;;8.60;6.32;;;;;;;;;;5050892;28;20052;-56
2022/07/30 10:15:19;;;;;;;7.18;6.22;;;;;;;;;;5054333;28;20104;-55
2022/07/30 10:17:46;;;;;;;6.22;5.10;;;;;;;;;;5054577;28;20303;-57
2022/07/30 10:20:13;;;;;;;5.22;4.72;;;;;;;;;;5054512;28;20099;-56
2022/07/30 10:22:39;;;;;;;10.48;4.90;;;;;;;;;;5054747;28;20112;-52
2022/07/30 10:25:06;;;;;;;8.63;5.00;;;;;;;;;;5054387;28;20017;-56
2022/07/30 10:27:33;;;;;;;2.90;2.60;;;;;;;;;;5054341;28;20036;-54
2022/07/30 10:29:59;;;;;;;3.60;2.58;;;;;;;;;;5054347;28;20029;-56
2022/07/30 10:32:28;;;;;;;5.32;3.50;;;;;;;;;;5054453;28;20056;-57
2022/07/30 10:34:54;;;;;;;6.80;4.50;;;;;;;;;;5054323;28;20055;-56
2022/07/30 10:37:22;;;;;;;11.43;5.50;;;;;;;;;;5054141;28;20033;-56
2022/07/30 10:39:53;;;;;;;4.30;3.78;;;;;;;;;;5052824;28;20560;-56
2022/07/30 10:42:37;;;;;;;1.10;1.08;;;;;;;;;;5054084;28;20502;-56
2022/07/30 10:45:03;;;;;;;2.70;2.25;;;;;;;;;;5054154;28;20029;-57
2022/07/30 10:47:30;;;;;;;2.45;2.25;;;;;;;;;;5052386;28;20483;-54
2022/07/30 10:49:56;;;;;;;;;;;;;;;;;;5094015;23;20186;-62
2022/07/30 10:52:41;;;;;;;2.60;2.35;;;;;;;;;;5073200;28;20373;-62
2022/07/30 10:55:12;;;;;;;2.78;2.50;;;;;;;;;;5073928;28;20056;-62
2022/07/30 10:57:56;;;;;;;3.45;3.15;;;;;;;;;;5073437;28;20040;-62
2022/07/30 11:00:22;;;;;;;3.10;2.72;;;;;;;;;;5073178;28;20495;-62
2022/07/30 11:03:08;;;;;;;3.95;2.22;;;;;;;;;;5072964;28;20123;-61
2022/07/30 11:05:34;;;;;;;3.15;2.85;;;;;;;;;;5059708;28;20036;-62
2022/07/30 11:08:19;;;;;;;4.57;2.17;;;;;;;;;;5072496;28;20094;-62
2022/07/30 11:10:45;;;;;;;3.78;2.58;;;;;;;;;;5072750;28;20025;-62
2022/07/30 11:13:11;;;;;;;3.47;2.20;;;;;;;;;;5072018;28;20041;-62
2022/07/30 11:15:55;;;;;;;5.22;2.78;;;;;;;;;;5073592;28;20056;-62
2022/07/30 11:18:23;;;;;;;4.72;2.80;;;;;;;;;;5072683;28;20443;-62
2022/07/30 11:21:08;;;;;;;2.70;2.30;;;;;;;;;;5073293;28;20024;-61
2022/07/30 11:23:38;;;;;;;3.25;1.60;;;;;;;;;;5064368;28;20493;-62
2022/07/30 11:26:04;;;;;;;3.33;1.90;;;;;;;;;;5071615;28;20421;-62
2022/07/30 11:28:34;;;;;;;3.22;2.60;;;;;;;;;;5072623;28;20250;-62
2022/07/30 11:31:00;;;;;;;3.35;2.75;;;;;;;;;;5071468;28;20063;-62
2022/07/30 11:33:26;;;;;;;4.35;2.08;;;;;;;;;;5065473;28;20075;-62
2022/07/30 11:36:06;;;;;;;3.60;3.30;;;;;;;;;;5067591;28;20036;-62
2022/07/30 11:38:51;;;;;;;4.78;2.88;;;;;;;;;;5073029;28;20028;-62
2022/07/30 11:41:18;;;;;;;3.22;2.88;;;;;;;;;;5072301;28;20024;-62
2022/07/30 11:43:44;;;;;;;3.13;2.83;;;;;;;;;;5070259;28;20475;-62
2022/07/30 11:46:22;;;;;;;5.80;2.83;;;;;;;;;;5072317;28;20479;-61
2022/07/30 11:48:55;;;;;;;3.65;2.30;;;;;;;;;;5072741;28;20032;-62
2022/07/30 11:51:21;;;;;;;4.68;2.60;;;;;;;;;;5072819;28;20417;-61
2022/07/30 11:54:03;;;;;;;4.40;3.13;;;;;;;;;;5072878;28;20053;-62
2022/07/30 11:56:30;;;;;;;3.58;3.28;;;;;;;;;;5072627;28;20021;-62
2022/07/30 11:59:02;;;;;;;6.72;3.65;;;;;;;;;;5072203;28;20082;-62
2022/07/30 12:01:29;;;;;;;9.43;3.15;;;;;;;;;;5071917;28;20029;-62
2022/07/30 12:03:56;;;;;;;10.15;5.18;;;;;;;;;;5072520;28;20482;-62
2022/07/30 12:06:22;;;;;;;9.10;4.40;;;;;;;;;;5071851;28;20444;-62
2022/07/30 12:08:52;;;;;;;5.03;4.22;;;;;;;;;;5071860;28;20024;-62
2022/07/30 12:11:22;;;;;;;6.53;4.35;;;;;;;;;;5072256;28;20390;-62
2022/07/30 12:13:58;;;;;;;8.38;4.40;;;;;;;;;;5072443;28;20025;-62
2022/07/30 12:16:24;;;;;;;4.18;3.55;;;;;;;;;;5070569;28;20029;-62
2022/07/30 12:18:50;;;;;;;4.75;4.13;;;;;;;;;;5071857;28;20077;-62
2022/07/30 12:21:17;;;;;;;6.72;4.75;;;;;;;;;;5072056;28;20037;-62
2022/07/30 12:23:43;;;;;;;;;;;;;;;;;;5072194;28;20021;-62
2022/07/30 12:26:23;;;;;;;5.53;4.35;;;;;;;;;;5071649;28;20309;-62
2022/07/30 12:28:49;;;;;;;5.47;4.80;;;;;;;;;;5070909;28;20024;-61
2022/07/30 12:31:16;;;;;;;5.90;4.45;;;;;;;;;;5071808;28;20030;-61
2022/07/30 12:33:42;;;;;;;4.93;3.97;;;;;;;;;;5071683;28;20039;-62
2022/07/30 12:36:09;;;;;;;4.85;4.32;;;;;;;;;;5071340;28;20032;-62
2022/07/30 12:38:51;;;;;;;6.10;3.47;;;;;;;;;;5069465;28;20033;-62
2022/07/30 12:41:17;;;;;;;4.70;4.25;;;;;;;;;;5071783;28;20470;-62
2022/07/30 12:43:46;;;;;;;4.38;3.97;;;;;;;;;;5071623;28;20021;-61
2022/07/30 12:46:33;;;;;;;4.47;4.05;;;;;;;;;;5071373;28;20444;-62
2022/07/30 12:49:00;;;;;;;4.35;3.90;;;;;;;;;;5071293;28;20036;-62
2022/07/30 12:51:28;;;;;;;4.95;4.40;;;;;;;;;;5072028;28;20103;-62
2022/07/30 12:53:55;;;;;;;4.93;4.45;;;;;;;;;;5071274;28;20032;-62
2022/07/30 12:56:22;;;;;;;5.95;5.18;;;;;;;;;;5071626;28;20020;-62
2022/07/30 12:58:48;;;;;;;5.47;4.60;;;;;;;;;;5070821;28;20445;-62
2022/07/30 13:01:15;;;;;;;7.63;5.05;;;;;;;;;;5070904;28;20122;-62
2022/07/30 13:03:41;;;;;;;;;;;;;;;;;;5069870;28;20032;-62
2022/07/30 13:06:15;;;;;;;5.80;5.15;;;;;;;;;;5070781;28;19904;-62
2022/07/30 13:08:52;;;;;;;6.63;4.90;;;;;;;;;;5069386;28;20488;-63
2022/07/30 13:11:19;;;;;;;6.60;5.10;;;;;;;;;;5070642;28;20486;-62
2022/07/30 13:13:46;;;;;;;7.38;5.65;;;;;;;;;;5071149;28;20024;-62
2022/07/30 13:16:12;;;;;;;5.57;5.07;;;;;;;;;;5067377;28;20364;-63
2022/07/30 13:18:38;;;;;;;5.35;4.78;;;;;;;;;;5070865;28;20040;-63
2022/07/30 13:21:06;;;;;;;5.70;5.10;;;;;;;;;;5071420;28;20032;-63
2022/07/30 13:23:33;;;;;;;9.38;6.43;;;;;;;;;;5071334;28;20471;-63
2022/07/30 13:25:59;;;;;;;;;;;;;;;;;;5070325;28;20425;-63
2022/07/30 13:28:25;;;;;;;7.50;5.95;;;;;;;;;;5070188;28;19962;-62
2022/07/30 13:30:51;;;;;;;;;;;;;;;;;;5071423;28;20027;-64
2022/07/30 13:33:17;;;;;;;6.97;5.20;;;;;;;;;;5061158;28;19909;-63
2022/07/30 13:35:43;;;;;;;5.00;4.55;;;;;;;;;;5071291;28;20099;-63
2022/07/30 13:38:12;;;;;;;6.22;4.70;;;;;;;;;;5070234;28;20028;-63
2022/07/30 13:40:39;;;;;;;4.05;3.65;;;;;;;;;;5070080;28;20384;-62
2022/07/30 13:43:05;;;;;;;;;;;;;;;;;;5071730;28;20027;-61
2022/07/30 13:45:31;;;;;;;6.63;4.05;;;;;;;;;;5071301;28;20274;-61
2022/07/30 13:47:57;;;;;;;;;;;;;;;;;;5071539;28;20108;-61
2022/07/30 13:50:23;;;;;;;4.10;3.70;;;;;;;;;;5056329;28;19956;-53
2022/07/30 13:52:49;;;;;;;9.20;4.85;;;;;;;;;;5055202;28;20546;-54
2022/07/30 13:55:15;;;;;;;9.60;4.57;;;;;;;;;;5055441;28;20384;-53
2022/07/30 13:57:41;;;;;;;4.00;3.70;;;;;;;;;;5054773;28;20486;-54
2022/07/30 14:00:08;;;;;;;4.80;4.40;;;;;;;;;;5057604;28;20405;-57
2022/07/30 14:02:34;;;;;;;5.75;4.15;;;;;;;;;;5074537;28;20032;-52
2022/07/30 14:05:05;;;;;;;4.70;4.30;;;;;;;;;;5074540;28;20103;-54
2022/07/30 14:07:32;;;;;;;4.55;4.15;;;;;;;;;;5071101;28;20034;-55
2022/07/30 14:09:58;;;;;;;3.88;3.40;;;23.00;85.40;;;;;;5074474;28;20025;-53
2022/07/30 14:12:24;;;;;;;3.72;3.17;;;;;;;;;;5074500;28;20025;-56
2022/07/30 14:14:50;;;;;;;4.18;3.78;;;;;;;;;;5072362;28;20086;-56
2022/07/30 14:17:17;;;;;;;5.47;3.67;;;;;;;;;;5074202;28;20032;-55
2022/07/30 14:19:43;;;;;;;6.57;3.58;;;;;;;;;;5073454;28;20036;-52
2022/07/30 14:22:09;;;;;;;5.40;3.95;;;;;;;;;;5074347;28;20020;-52
2022/07/30 14:24:35;;;;;;;3.60;3.30;;;;;;;;;;5073673;28;20029;-55